createdAt,value
2023-07-22T00:01:52.730Z,19.82
2023-07-22T00:04:20.233Z,19.77
2023-07-22T00:06:47.800Z,19.68
2023-07-22T00:09:15.627Z,19.63
2023-07-22T00:11:43.381Z,19.57
2023-07-22T00:14:11.054Z,19.52
2023-07-22T00:16:38.646Z,19.47
2023-07-22T00:19:07.736Z,19.41
2023-07-22T00:21:35.759Z,19.39
2023-07-22T00:24:05.162Z,19.38
2023-07-22T00:26:33.085Z,19.36
2023-07-22T00:29:00.680Z,19.33
2023-07-22T00:31:28.337Z,19.28
2023-07-22T00:33:56.083Z,19.26
2023-07-22T00:36:23.824Z,19.22
2023-07-22T00:38:53.303Z,19.20
2023-07-22T00:41:20.811Z,19.20
2023-07-22T00:43:48.255Z,19.19
2023-07-22T00:46:16.169Z,19.21
2023-07-22T00:48:43.661Z,19.18
2023-07-22T00:51:11.339Z,19.17
2023-07-22T00:53:39.328Z,19.14
2023-07-22T00:56:07.033Z,19.12
2023-07-22T00:58:35.279Z,19.10
2023-07-22T01:01:03.105Z,19.05
2023-07-22T01:03:30.582Z,19.03
2023-07-22T01:06:00.982Z,19.03
2023-07-22T01:08:29.395Z,19.04
2023-07-22T01:10:57.245Z,19.07
2023-07-22T01:13:24.955Z,19.06
2023-07-22T01:15:53.124Z,19.05
2023-07-22T01:18:21.933Z,19.03
2023-07-22T01:20:49.746Z,19.04
2023-07-22T01:23:17.532Z,19.08
2023-07-22T01:25:45.594Z,19.12
2023-07-22T01:28:13.376Z,19.17
2023-07-22T01:30:41.310Z,19.20
2023-07-22T01:33:09.564Z,19.22
2023-07-22T01:35:37.211Z,19.25
2023-07-22T01:38:05.031Z,19.22
2023-07-22T01:40:32.624Z,19.24
2023-07-22T01:43:00.382Z,19.26
2023-07-22T01:45:27.998Z,19.29
2023-07-22T01:47:55.876Z,19.28
2023-07-22T01:50:23.917Z,19.25
2023-07-22T01:52:51.730Z,19.21
2023-07-22T01:55:19.468Z,19.19
2023-07-22T01:57:46.936Z,19.17
2023-07-22T02:00:15.616Z,19.17
2023-07-22T02:02:43.655Z,19.15
2023-07-22T02:05:11.864Z,19.14
2023-07-22T02:07:40.408Z,19.07
2023-07-22T02:10:10.068Z,19.04
2023-07-22T02:12:38.021Z,19.03
2023-07-22T02:15:07.204Z,19.03
2023-07-22T02:17:35.107Z,19.00
2023-07-22T02:20:04.878Z,18.99
2023-07-22T02:22:32.440Z,18.93
2023-07-22T02:25:00.271Z,18.90
2023-07-22T02:27:28.157Z,18.92
2023-07-22T02:29:55.730Z,18.96
2023-07-22T02:32:23.504Z,18.99
2023-07-22T02:34:51.229Z,19.01
2023-07-22T02:37:18.853Z,19.00
2023-07-22T02:39:46.477Z,19.02
2023-07-22T02:42:14.035Z,19.03
2023-07-22T02:44:41.678Z,19.02
2023-07-22T02:47:09.441Z,19.03
2023-07-22T02:49:36.907Z,18.99
2023-07-22T02:52:05.241Z,18.98
2023-07-22T02:54:35.192Z,18.97
2023-07-22T02:57:04.199Z,18.98
2023-07-22T02:59:32.729Z,18.99
2023-07-22T03:02:00.507Z,19.00
2023-07-22T03:04:28.163Z,19.03
2023-07-22T03:06:55.812Z,19.05
2023-07-22T03:09:23.328Z,19.10
2023-07-22T03:11:51.189Z,19.12
2023-07-22T03:14:21.912Z,19.14
2023-07-22T03:16:49.618Z,19.16
2023-07-22T03:19:17.274Z,19.16
2023-07-22T03:21:45.103Z,19.16
2023-07-22T03:24:12.966Z,19.15
2023-07-22T03:26:40.801Z,19.17
2023-07-22T03:29:08.651Z,19.20
2023-07-22T03:31:36.755Z,19.24
2023-07-22T03:34:04.352Z,19.28
2023-07-22T03:36:35.196Z,19.28
2023-07-22T03:39:03.680Z,19.28
2023-07-22T03:41:31.355Z,19.30
2023-07-22T03:43:58.975Z,19.33
2023-07-22T03:46:27.037Z,19.38
2023-07-22T03:48:55.368Z,19.44
2023-07-22T03:51:23.040Z,19.51
2023-07-22T03:53:50.776Z,20.13
2023-07-22T03:56:18.508Z,21.19
2023-07-22T03:58:46.441Z,22.23
2023-07-22T04:01:14.420Z,23.19
2023-07-22T04:03:42.199Z,24.00
2023-07-22T04:06:10.159Z,24.75
2023-07-22T04:08:38.049Z,25.45
2023-07-22T04:11:05.597Z,26.15
2023-07-22T04:13:33.367Z,26.87
2023-07-22T04:16:01.270Z,27.43
2023-07-22T04:18:31.755Z,27.97
2023-07-22T04:20:59.479Z,27.69
2023-07-22T04:23:28.130Z,27.15
2023-07-22T04:25:55.997Z,26.45
2023-07-22T04:28:25.417Z,25.72
2023-07-22T04:30:59.525Z,25.08
2023-07-22T04:33:28.617Z,24.49
2023-07-22T04:35:59.817Z,23.94
2023-07-22T04:38:27.871Z,23.43
2023-07-22T04:40:55.539Z,23.00
2023-07-22T04:43:23.509Z,22.68
2023-07-22T04:45:51.472Z,22.41
2023-07-22T04:48:21.558Z,22.25
2023-07-22T04:50:49.069Z,22.34
2023-07-22T04:53:18.576Z,22.31
2023-07-22T04:55:46.788Z,22.37
2023-07-22T04:58:14.538Z,22.87
2023-07-22T05:00:43.530Z,23.07
2023-07-22T05:03:11.614Z,23.19
2023-07-22T05:05:39.644Z,23.55
2023-07-22T05:08:08.805Z,23.69
2023-07-22T05:10:38.421Z,23.81
2023-07-22T05:13:06.222Z,23.86
2023-07-22T05:15:33.787Z,23.79
2023-07-22T05:18:01.877Z,23.53
2023-07-22T05:20:29.729Z,23.25
2023-07-22T05:22:57.478Z,22.90
2023-07-22T05:25:25.482Z,22.64
2023-07-22T05:27:53.052Z,22.41
2023-07-22T05:30:34.120Z,22.31
2023-07-22T05:32:54.725Z,22.22
2023-07-22T05:35:22.332Z,22.09
2023-07-22T05:37:49.972Z,21.96
2023-07-22T05:40:17.758Z,21.88
2023-07-22T05:42:45.355Z,21.82
2023-07-22T05:45:14.559Z,21.67
2023-07-22T05:47:42.040Z,21.55
2023-07-22T05:50:10.047Z,21.48
2023-07-22T05:52:37.962Z,21.42
2023-07-22T05:55:06.174Z,21.42
2023-07-22T05:57:34.059Z,21.45
2023-07-22T06:00:08.899Z,21.51
2023-07-22T06:02:34.071Z,21.53
2023-07-22T06:05:02.270Z,21.58
2023-07-22T06:07:30.286Z,21.63
2023-07-22T06:09:58.110Z,21.67
2023-07-22T06:14:54.895Z,21.81
2023-07-22T06:17:22.693Z,21.78
2023-07-22T06:19:50.550Z,21.77
2023-07-22T06:22:18.038Z,21.76
2023-07-22T06:24:45.801Z,21.66
2023-07-22T06:27:13.661Z,21.80
2023-07-22T06:29:41.160Z,22.43
2023-07-22T06:32:09.213Z,23.07
2023-07-22T06:34:36.909Z,23.63
2023-07-22T06:37:05.100Z,23.84
2023-07-22T06:39:32.916Z,23.78
2023-07-22T06:42:00.604Z,23.74
2023-07-22T06:44:28.507Z,23.65
2023-07-22T06:46:56.116Z,23.53
2023-07-22T06:49:23.970Z,23.36
2023-07-22T06:51:52.594Z,23.26
2023-07-22T06:54:20.489Z,23.09
2023-07-22T06:56:48.332Z,23.07
2023-07-22T06:59:16.051Z,23.06
2023-07-22T07:01:43.942Z,23.00
2023-07-22T07:04:11.660Z,23.01
2023-07-22T07:06:39.414Z,22.98
2023-07-22T07:09:07.092Z,22.98
2023-07-22T07:11:35.052Z,23.02
2023-07-22T07:14:04.162Z,23.08
2023-07-22T07:16:32.976Z,23.12
2023-07-22T07:19:02.098Z,23.12
2023-07-22T07:21:29.658Z,23.12
2023-07-22T07:23:57.257Z,23.19
2023-07-22T07:26:25.309Z,23.30
2023-07-22T07:28:53.156Z,23.33
2023-07-22T07:31:21.243Z,23.39
2023-07-22T07:33:49.130Z,23.43
2023-07-22T07:36:16.909Z,23.46
2023-07-22T07:38:44.528Z,23.51
2023-07-22T07:41:13.117Z,23.59
2023-07-22T07:43:41.894Z,23.73
2023-07-22T07:46:28.525Z,23.83
2023-07-22T07:49:01.388Z,23.87
2023-07-22T07:51:31.876Z,23.92
2023-07-22T07:54:00.606Z,23.93
2023-07-22T07:56:29.879Z,23.95
2023-07-22T07:58:57.850Z,24.02
2023-07-22T08:01:25.657Z,24.13
2023-07-22T08:03:53.435Z,24.15
2023-07-22T08:06:21.312Z,24.10
2023-07-22T08:08:49.970Z,24.07
2023-07-22T08:11:17.545Z,23.99
2023-07-22T08:13:45.467Z,23.99
2023-07-22T08:16:14.727Z,24.07
2023-07-22T08:18:42.546Z,24.19
2023-07-22T08:21:10.755Z,24.24
2023-07-22T08:23:38.593Z,24.37
2023-07-22T08:26:06.694Z,24.50
2023-07-22T08:28:35.714Z,24.60
2023-07-22T08:31:04.070Z,24.69
2023-07-22T08:36:03.136Z,24.78
2023-07-22T08:38:31.003Z,24.82
2023-07-22T08:41:01.275Z,24.82
2023-07-22T08:43:30.531Z,24.76
2023-07-22T08:46:01.830Z,24.72
2023-07-22T08:48:33.447Z,24.66
2023-07-22T08:51:09.512Z,24.61
2023-07-22T08:53:38.405Z,24.53
2023-07-22T08:56:06.637Z,24.51
2023-07-22T08:58:35.631Z,24.52
2023-07-22T09:01:04.072Z,24.58
2023-07-22T09:03:33.234Z,24.67
2023-07-22T09:06:02.325Z,24.80
2023-07-22T09:08:30.463Z,24.90
2023-07-22T09:10:58.892Z,24.99
2023-07-22T09:13:28.086Z,25.10
2023-07-22T09:16:01.197Z,25.16
2023-07-22T09:18:29.146Z,25.33
2023-07-22T09:20:56.732Z,25.78
2023-07-22T09:23:38.316Z,26.28
2023-07-22T09:26:18.380Z,26.79
2023-07-22T09:28:57.925Z,27.40
2023-07-22T09:31:28.888Z,27.87
2023-07-22T09:34:12.112Z,28.14
2023-07-22T09:36:58.170Z,28.31
2023-07-22T09:39:25.684Z,28.30
2023-07-22T09:41:55.849Z,28.16
2023-07-22T09:44:24.250Z,28.00
2023-07-22T09:46:51.969Z,27.87
2023-07-22T09:49:20.041Z,27.65
2023-07-22T09:52:00.948Z,27.36
2023-07-22T09:54:17.275Z,27.21
2023-07-22T09:56:48.276Z,27.15
2023-07-22T09:59:23.600Z,27.09
2023-07-22T10:01:52.756Z,27.02
2023-07-22T10:04:22.746Z,27.03
2023-07-22T10:06:51.315Z,27.29
2023-07-22T10:09:21.526Z,27.61
2023-07-22T10:11:49.499Z,27.90
2023-07-22T10:14:18.511Z,28.14
2023-07-22T10:16:46.264Z,28.34
2023-07-22T10:19:14.006Z,28.43
2023-07-22T10:21:41.829Z,28.41
2023-07-22T10:24:11.012Z,28.30
2023-07-22T10:26:47.346Z,28.22
2023-07-22T10:29:11.819Z,28.49
2023-07-22T10:31:39.545Z,28.62
2023-07-22T10:34:07.487Z,28.86
2023-07-22T10:36:37.428Z,28.98
2023-07-22T10:39:05.563Z,29.10
2023-07-22T10:41:35.830Z,29.15
2023-07-22T10:44:03.694Z,28.98
2023-07-22T10:46:39.436Z,28.64
2023-07-22T10:49:16.621Z,28.26
2023-07-22T10:51:52.276Z,28.09
2023-07-22T10:54:34.987Z,28.10
2023-07-22T10:57:23.301Z,27.91
2023-07-22T10:59:52.721Z,27.72
2023-07-22T11:02:29.266Z,27.49
2023-07-22T11:04:59.724Z,27.31
2023-07-22T11:07:36.145Z,27.19
2023-07-22T11:10:14.401Z,27.41
2023-07-22T11:12:44.903Z,27.80
2023-07-22T11:15:18.543Z,28.21
2023-07-22T11:17:46.536Z,28.61
2023-07-22T11:20:14.293Z,28.94
2023-07-22T11:22:44.108Z,29.19
2023-07-22T11:25:19.613Z,29.33
2023-07-22T11:27:47.536Z,29.15
2023-07-22T11:30:16.644Z,28.92
2023-07-22T11:32:45.239Z,28.82
2023-07-22T11:35:12.870Z,28.99
2023-07-22T11:37:40.758Z,29.00
2023-07-22T11:40:14.195Z,29.06
2023-07-22T11:42:41.951Z,29.19
2023-07-22T11:45:10.070Z,29.25
2023-07-22T11:47:37.621Z,29.08
2023-07-22T11:50:06.429Z,28.91
2023-07-22T11:52:34.365Z,28.91
2023-07-22T11:55:04.045Z,29.01
2023-07-22T11:57:31.984Z,28.99
2023-07-22T11:59:59.678Z,28.87
2023-07-22T12:02:29.615Z,28.89
2023-07-22T12:05:05.902Z,28.94
2023-07-22T12:07:37.234Z,29.05
2023-07-22T12:10:07.756Z,29.26
2023-07-22T12:12:48.100Z,29.39
2023-07-22T12:15:24.039Z,29.52
2023-07-22T12:17:56.291Z,29.61
2023-07-22T12:20:32.396Z,29.66
2023-07-22T12:23:00.463Z,29.77
2023-07-22T12:25:28.466Z,29.83
2023-07-22T12:27:56.207Z,29.78
2023-07-22T12:30:24.784Z,29.56
2023-07-22T12:32:52.722Z,29.43
2023-07-22T12:35:20.537Z,29.37
2023-07-22T12:37:48.009Z,29.39
2023-07-22T12:40:15.803Z,29.49
2023-07-22T12:42:43.488Z,29.63
2023-07-22T12:45:11.252Z,29.80
2023-07-22T12:47:39.140Z,29.67
2023-07-22T12:50:10.110Z,29.42
2023-07-22T12:52:38.630Z,29.25
2023-07-22T12:55:07.201Z,29.23
2023-07-22T12:57:34.963Z,29.30
2023-07-22T13:00:05.161Z,29.38
2023-07-22T13:02:32.931Z,29.41
2023-07-22T13:05:00.973Z,29.37
2023-07-22T13:07:29.041Z,29.31
2023-07-22T13:10:02.270Z,29.36
2023-07-22T13:12:30.165Z,29.27
2023-07-22T13:14:57.839Z,29.13
2023-07-22T13:17:25.625Z,29.21
2023-07-22T13:19:53.239Z,29.21
2023-07-22T13:22:21.122Z,29.14
2023-07-22T13:24:48.994Z,29.18
2023-07-22T13:27:16.722Z,29.34
2023-07-22T13:29:44.546Z,29.47
2023-07-22T13:32:12.125Z,29.51
2023-07-22T13:34:39.854Z,29.50
2023-07-22T13:37:07.652Z,29.51
2023-07-22T13:39:35.728Z,29.50
2023-07-22T13:42:04.014Z,29.47
2023-07-22T13:44:31.656Z,29.35
2023-07-22T13:46:59.332Z,29.32
2023-07-22T13:49:27.190Z,29.22
2023-07-22T13:51:54.870Z,29.21
2023-07-22T13:54:22.268Z,29.20
2023-07-22T13:56:49.755Z,29.09
2023-07-22T13:59:17.729Z,29.01
2023-07-22T14:01:45.103Z,28.96
2023-07-22T14:04:12.760Z,28.97
2023-07-22T14:06:40.295Z,28.98
2023-07-22T14:09:07.999Z,28.96
2023-07-22T14:11:35.788Z,28.90
2023-07-22T14:14:03.290Z,28.85
2023-07-22T14:16:30.817Z,28.91
2023-07-22T14:18:58.713Z,28.99
2023-07-22T14:21:26.709Z,29.05
2023-07-22T14:23:55.757Z,29.02
2023-07-22T14:26:23.332Z,28.93
2023-07-22T14:28:51.612Z,28.89
2023-07-22T14:31:19.647Z,28.77
2023-07-22T14:33:47.790Z,28.72
2023-07-22T14:36:15.941Z,28.65
2023-07-22T14:38:43.643Z,28.61
2023-07-22T14:41:11.832Z,28.65
2023-07-22T14:43:39.580Z,28.68
2023-07-22T14:46:07.169Z,28.62
2023-07-22T14:48:35.026Z,28.56
2023-07-22T14:51:02.681Z,28.47
2023-07-22T14:53:30.101Z,28.41
2023-07-22T14:55:57.674Z,28.35
2023-07-22T14:58:25.255Z,28.25
2023-07-22T15:00:52.952Z,28.18
2023-07-22T15:03:20.543Z,28.16
2023-07-22T15:05:48.387Z,28.12
2023-07-22T15:08:16.148Z,28.04
2023-07-22T15:10:43.935Z,27.97
2023-07-22T15:13:11.695Z,27.97
2023-07-22T15:15:39.108Z,27.99
2023-07-22T15:18:06.812Z,27.94
2023-07-22T15:20:36.001Z,27.95
2023-07-22T15:23:03.671Z,27.99
2023-07-22T15:25:31.647Z,28.07
2023-07-22T15:27:59.591Z,28.09
2023-07-22T15:30:27.222Z,28.06
2023-07-22T15:32:54.881Z,28.09
2023-07-22T15:35:24.647Z,28.11
2023-07-22T15:37:53.629Z,28.11
2023-07-22T15:40:21.927Z,28.10
2023-07-22T15:42:50.077Z,28.11
2023-07-22T15:45:18.006Z,28.12
2023-07-22T15:47:45.592Z,28.06
2023-07-22T15:50:13.180Z,28.01
2023-07-22T15:52:40.605Z,27.95
2023-07-22T15:55:08.591Z,27.85
2023-07-22T15:57:36.393Z,27.78
2023-07-22T16:00:07.351Z,27.71
2023-07-22T16:02:35.369Z,27.66
2023-07-22T16:05:04.825Z,27.64
2023-07-22T16:07:34.817Z,27.56
2023-07-22T16:10:03.456Z,27.47
2023-07-22T16:12:30.905Z,27.38
2023-07-22T16:14:58.442Z,27.35
2023-07-22T16:17:25.960Z,27.28
2023-07-22T16:19:53.431Z,27.24
2023-07-22T16:22:21.025Z,27.16
2023-07-22T16:24:49.735Z,27.09
2023-07-22T16:27:17.634Z,27.05
2023-07-22T16:29:45.263Z,26.98
2023-07-22T16:32:12.656Z,26.88
2023-07-22T16:34:40.144Z,26.82
2023-07-22T16:37:07.698Z,26.78
2023-07-22T16:39:35.209Z,26.73
2023-07-22T16:42:02.874Z,26.68
2023-07-22T16:44:31.184Z,26.63
2023-07-22T16:46:59.043Z,26.60
2023-07-22T16:49:29.206Z,26.56
2023-07-22T16:51:56.838Z,26.49
2023-07-22T16:54:24.543Z,26.43
2023-07-22T16:56:52.086Z,26.38
2023-07-22T16:59:19.731Z,26.37
2023-07-22T17:01:47.511Z,26.30
2023-07-22T17:04:15.158Z,26.24
2023-07-22T17:06:42.667Z,26.20
2023-07-22T17:09:12.306Z,26.14
2023-07-22T17:11:40.256Z,26.09
2023-07-22T17:14:07.831Z,26.05
2023-07-22T17:16:35.098Z,26.01
2023-07-22T17:19:02.924Z,25.96
2023-07-22T17:21:30.940Z,25.92
2023-07-22T17:23:58.658Z,25.85
2023-07-22T17:26:26.201Z,25.79
2023-07-22T17:28:53.689Z,25.76
2023-07-22T17:31:21.275Z,25.68
2023-07-22T17:33:48.839Z,25.63
2023-07-22T17:36:16.270Z,25.59
2023-07-22T17:38:44.029Z,25.54
2023-07-22T17:41:12.707Z,25.47
2023-07-22T17:43:40.418Z,25.39
2023-07-22T17:46:08.039Z,25.31
2023-07-22T17:48:35.622Z,25.22
2023-07-22T17:51:03.326Z,25.12
2023-07-22T17:53:31.054Z,25.03
2023-07-22T17:55:59.119Z,24.95
2023-07-22T17:58:27.578Z,24.89
2023-07-22T18:00:55.309Z,24.79
2023-07-22T18:03:23.283Z,24.69
2023-07-22T18:05:50.804Z,24.59
2023-07-22T18:08:20.514Z,24.49
2023-07-22T18:10:48.438Z,24.40
2023-07-22T18:13:16.224Z,24.32
2023-07-22T18:15:43.781Z,24.23
2023-07-22T18:18:11.486Z,24.13
2023-07-22T18:20:38.989Z,24.04
2023-07-22T18:23:06.551Z,23.97
2023-07-22T18:25:36.148Z,23.89
2023-07-22T18:28:03.986Z,23.80
2023-07-22T18:30:31.932Z,23.68
2023-07-22T18:32:59.683Z,23.58
2023-07-22T18:35:27.314Z,23.48
2023-07-22T18:37:55.074Z,23.36
2023-07-22T18:40:22.640Z,23.27
2023-07-22T18:42:50.347Z,23.19
2023-07-22T18:45:17.965Z,23.09
2023-07-22T18:47:45.430Z,23.00
2023-07-22T18:50:16.066Z,22.92
2023-07-22T18:52:43.678Z,22.83
2023-07-22T18:55:11.620Z,22.77
2023-07-22T18:57:39.653Z,22.67
2023-07-22T19:00:08.610Z,22.56
2023-07-22T19:02:36.188Z,22.47
2023-07-22T19:05:04.159Z,22.38
2023-07-22T19:07:33.233Z,22.26
2023-07-22T19:10:00.828Z,22.15
2023-07-22T19:12:29.434Z,22.03
2023-07-22T19:14:57.235Z,21.87
2023-07-22T19:17:26.331Z,21.75
2023-07-22T19:19:54.082Z,21.62
2023-07-22T19:22:21.567Z,21.53
2023-07-22T19:24:49.461Z,21.41
2023-07-22T19:27:17.130Z,21.32
2023-07-22T19:29:44.688Z,21.23
2023-07-22T19:32:12.467Z,21.14
2023-07-22T19:34:39.963Z,21.04
2023-07-22T19:37:07.553Z,20.97
2023-07-22T19:39:35.324Z,20.87
2023-07-22T19:42:03.508Z,20.79
2023-07-22T19:44:31.090Z,20.71
2023-07-22T19:47:00.791Z,20.64
2023-07-22T19:49:29.575Z,20.58
2023-07-22T19:51:56.922Z,20.51
2023-07-22T19:54:26.256Z,20.47
2023-07-22T19:56:53.844Z,20.42
2023-07-22T19:59:21.413Z,20.37
2023-07-22T20:01:48.790Z,20.33
2023-07-22T20:04:16.309Z,20.29
2023-07-22T20:06:44.265Z,20.24
2023-07-22T20:09:11.913Z,20.21
2023-07-22T20:11:39.746Z,20.18
2023-07-22T20:14:07.461Z,20.13
2023-07-22T20:16:35.510Z,20.08
2023-07-22T20:19:03.070Z,20.05
2023-07-22T20:21:31.035Z,20.00
2023-07-22T20:23:58.579Z,19.94
2023-07-22T20:26:26.037Z,19.90
2023-07-22T20:28:53.715Z,19.86
2023-07-22T20:31:21.561Z,19.79
2023-07-22T20:33:49.127Z,19.76
2023-07-22T20:36:17.474Z,19.71
2023-07-22T20:38:45.264Z,19.65
2023-07-22T20:41:14.383Z,19.58
2023-07-22T20:43:41.895Z,19.49
2023-07-22T20:46:09.420Z,19.43
2023-07-22T20:48:37.091Z,19.37
2023-07-22T20:51:04.878Z,19.33
2023-07-22T20:53:34.457Z,19.27
2023-07-22T20:56:02.588Z,19.21
2023-07-22T20:58:30.628Z,19.18
2023-07-22T21:01:01.964Z,19.15
2023-07-22T21:03:30.024Z,19.10
2023-07-22T21:05:59.051Z,19.07
2023-07-22T21:08:28.720Z,19.03
2023-07-22T21:10:56.654Z,18.99
2023-07-22T21:13:24.793Z,18.93
2023-07-22T21:15:52.622Z,18.90
2023-07-22T21:18:20.133Z,18.84
2023-07-22T21:20:47.866Z,18.82
2023-07-22T21:23:15.512Z,18.79
2023-07-22T21:25:43.157Z,18.75
2023-07-22T21:28:13.200Z,18.72
2023-07-22T21:30:40.355Z,18.70
2023-07-22T21:33:08.910Z,18.66
2023-07-22T21:35:36.832Z,18.64
2023-07-22T21:38:04.672Z,18.61
2023-07-22T21:40:33.605Z,18.58
2023-07-22T21:43:01.977Z,18.57
2023-07-22T21:45:29.832Z,18.50
2023-07-22T21:47:57.673Z,18.45
2023-07-22T21:50:25.311Z,18.40
2023-07-22T21:52:53.721Z,18.36
2023-07-22T21:55:22.211Z,18.33
2023-07-22T21:57:50.050Z,18.32
2023-07-22T22:00:17.812Z,18.27
2023-07-22T22:02:45.526Z,18.21
2023-07-22T22:05:13.221Z,18.17
2023-07-22T22:07:41.756Z,18.15
2023-07-22T22:10:09.733Z,18.12
2023-07-22T22:12:40.971Z,18.07
2023-07-22T22:15:10.060Z,18.04
2023-07-22T22:17:54.361Z,18.02
2023-07-22T22:20:10.726Z,17.98
2023-07-22T22:22:39.762Z,17.97
2023-07-22T22:25:08.490Z,17.95
2023-07-22T22:27:36.653Z,17.95
2023-07-22T22:30:05.465Z,17.94
2023-07-22T22:32:33.269Z,17.94
2023-07-22T22:35:00.930Z,17.94
2023-07-22T22:37:28.673Z,17.91
2023-07-22T22:39:56.712Z,17.91
2023-07-22T22:42:25.130Z,17.89
2023-07-22T22:44:52.963Z,17.88
2023-07-22T22:47:20.651Z,17.85
2023-07-22T22:49:48.527Z,17.79
2023-07-22T22:52:15.971Z,17.72
2023-07-22T22:54:44.674Z,17.63
2023-07-22T22:57:12.624Z,17.53
2023-07-22T22:59:40.278Z,17.45
2023-07-22T23:02:08.113Z,17.40
2023-07-22T23:04:35.970Z,17.35
2023-07-22T23:07:04.616Z,17.33
2023-07-22T23:09:32.663Z,17.33
2023-07-22T23:12:00.525Z,17.32
2023-07-22T23:14:28.091Z,17.31
2023-07-22T23:16:55.858Z,17.28
2023-07-22T23:19:23.406Z,17.27
2023-07-22T23:21:51.272Z,17.26
2023-07-22T23:24:19.026Z,17.24
2023-07-22T23:26:46.604Z,17.24
2023-07-22T23:29:14.390Z,17.25
2023-07-22T23:31:42.368Z,17.26
2023-07-22T23:34:11.854Z,17.25
2023-07-22T23:36:39.352Z,17.22
2023-07-22T23:39:07.043Z,17.20
2023-07-22T23:41:34.669Z,17.19
2023-07-22T23:44:03.870Z,17.20
2023-07-22T23:46:32.372Z,17.20
2023-07-22T23:48:59.944Z,17.22
2023-07-22T23:51:28.282Z,17.22
2023-07-22T23:53:56.237Z,17.21
2023-07-22T23:56:24.360Z,17.17
2023-07-22T23:58:52.011Z,17.13
